.
WxDataArchive / Data Records for 2014-09-25
2014-09-24 September 2014 2014-09-26

Data Records for Thursday, 25 September 2014

Time	Temp	Chill	HIndex	Humid	Dewpt	 Wind 	HiWind	WindDir	Rain 	Barom
-----	----	-----	------	-----	-----	------	------	-------	-----	-----
00:00	56.5	56.5	56.5	84	51.7	0	0	---	0.00	30.277 
00:05	56.3	56.3	56.3	85	51.8	0	0	---	0.00	30.277 
00:10	56.0	56.0	56.0	85	51.6	0	0	---	0.00	30.277 
00:15	55.9	55.9	55.9	85	51.5	0	0	---	0.00	30.277 
00:20	55.6	55.6	55.6	86	51.5	0	0	---	0.00	30.277 
00:25	55.4	55.4	55.4	86	51.3	0	0	---	0.00	30.277 
00:30	55.3	55.3	55.3	87	51.5	0	0	---	0.00	30.277 
00:35	55.0	55.0	55.0	87	51.2	0	0	---	0.00	30.277 
00:40	54.8	54.8	54.8	88	51.3	0	0	---	0.00	30.277 
00:45	54.5	54.5	54.5	88	51.0	0	0	---	0.00	30.272 
00:50	54.4	54.4	54.4	88	50.9	0	0	---	0.00	30.272 
00:55	54.2	54.2	54.2	88	50.7	0	0	---	0.00	30.272 
01:00	54.1	54.1	54.1	89	50.9	0	0	---	0.00	30.271 
01:05	53.9	53.9	53.9	89	50.7	0	0	---	0.00	30.271 
01:10	53.8	53.8	53.8	89	50.6	0	0	---	0.00	30.271 
01:15	53.5	53.5	53.5	89	50.3	0	0	---	0.00	30.265 
01:20	53.3	53.3	53.3	90	50.4	0	0	---	0.00	30.265 
01:25	53.2	53.2	53.2	90	50.3	0	0	---	0.00	30.265 
01:30	53.1	53.1	53.1	90	50.2	0	0	---	0.00	30.266 
01:35	53.1	53.1	53.1	90	50.2	0	0	---	0.00	30.266 
01:40	53.1	53.1	53.1	91	50.5	0	0	---	0.00	30.266 
01:45	52.9	52.9	52.9	91	50.3	0	0	---	0.00	30.268 
01:50	52.9	52.9	52.9	91	50.3	0	0	---	0.00	30.268 
01:55	52.8	52.8	52.8	91	50.2	0	0	---	0.00	30.268 
02:00	52.6	52.6	52.6	91	50.0	0	0	---	0.00	30.274 
02:05	52.5	52.5	52.5	92	50.2	0	0	---	0.00	30.274 
02:10	52.2	52.2	52.2	92	49.9	0	0	---	0.00	30.274 
02:15	52.0	52.0	52.0	92	49.7	0	0	---	0.00	30.274 
02:20	51.9	51.9	51.9	92	49.6	0	0	---	0.00	30.274 
02:25	51.7	51.7	51.7	92	49.5	0	0	---	0.00	30.274 
02:30	51.6	51.6	51.6	92	49.4	0	0	---	0.00	30.277 
02:35	51.4	51.4	51.4	92	49.2	0	0	---	0.00	30.277 
02:40	51.4	51.4	51.4	92	49.2	0	0	---	0.00	30.277 
02:45	51.3	51.3	51.3	92	49.1	0	0	---	0.00	30.269 
02:50	51.4	51.4	51.4	92	49.2	0	0	---	0.00	30.269 
02:55	51.6	51.6	51.6	93	49.6	0	0	---	0.00	30.269 
03:00	51.6	51.6	51.6	93	49.6	0	0	---	0.00	30.271 
03:05	51.4	51.4	51.4	93	49.4	0	0	---	0.00	30.271 
03:10	51.3	51.3	51.3	93	49.3	0	0	---	0.00	30.271 
03:15	51.1	51.1	51.1	93	49.1	0	0	---	0.00	30.269 
03:20	51.0	51.0	51.0	93	49.0	0	0	---	0.00	30.269 
03:25	50.8	50.8	50.8	93	48.8	0	0	---	0.00	30.269 
03:30	50.7	50.7	50.7	93	48.7	0	0	---	0.00	30.268 
03:35	50.7	50.7	50.7	93	48.7	0	0	---	0.00	30.268 
03:40	50.5	50.5	50.5	93	48.6	0	0	---	0.00	30.268 
03:45	50.5	50.5	50.5	93	48.6	0	0	---	0.00	30.267 
03:50	50.4	50.4	50.4	93	48.5	0	0	---	0.00	30.267 
03:55	50.1	50.1	50.1	93	48.2	0	0	---	0.00	30.267 
04:00	49.9	49.9	49.9	93	48.0	0	0	---	0.00	30.268 
04:05	49.8	49.8	49.8	93	47.9	0	0	---	0.00	30.268 
04:10	49.6	49.6	49.6	93	47.7	0	0	---	0.00	30.268 
04:15	49.5	49.5	49.5	93	47.6	0	0	---	0.00	30.269 
04:20	49.5	49.5	49.5	94	47.8	0	0	---	0.00	30.269 
04:25	49.5	49.5	49.5	93	47.6	0	0	---	0.00	30.269 
04:30	49.4	49.4	49.4	94	47.7	0	0	---	0.00	30.268 
04:35	49.4	49.4	49.4	94	47.7	0	0	---	0.00	30.268 
04:40	49.2	49.2	49.2	94	47.5	0	0	---	0.00	30.268 
04:45	49.1	49.1	49.1	94	47.4	0	0	---	0.00	30.269 
04:50	49.1	49.1	49.1	94	47.4	0	0	---	0.00	30.269 
04:55	48.9	48.9	48.9	94	47.2	0	0	---	0.00	30.269 
05:00	49.1	49.1	49.1	94	47.4	0	0	---	0.00	30.270 
05:05	49.2	49.2	49.2	94	47.5	0	0	---	0.00	30.270 
05:10	49.4	49.4	49.4	94	47.7	0	0	---	0.00	30.270 
05:15	49.4	49.4	49.4	94	47.7	0	0	---	0.00	30.269 
05:20	49.4	49.4	49.4	94	47.7	0	0	---	0.00	30.269 
05:25	49.4	49.4	49.4	94	47.7	0	0	---	0.00	30.269 
05:30	49.2	49.2	49.2	94	47.5	0	0	---	0.00	30.271 
05:35	49.2	49.2	49.2	94	47.5	0	0	---	0.00	30.271 
05:40	49.2	49.2	49.2	94	47.5	0	0	---	0.00	30.271 
05:45	49.1	49.1	49.1	94	47.4	0	0	---	0.00	30.277 
05:50	48.9	48.9	48.9	94	47.2	0	0	---	0.00	30.277 
05:55	48.8	48.8	48.8	94	47.1	0	0	---	0.00	30.277 
06:00	48.8	48.8	48.8	94	47.1	0	0	---	0.00	30.280 
06:05	48.6	48.6	48.6	94	47.0	0	0	---	0.00	30.280 
06:10	48.5	48.5	48.5	94	46.9	0	0	---	0.00	30.280 
06:15	48.3	48.3	48.3	94	46.7	0	0	---	0.00	30.287 
06:20	48.3	48.3	48.3	94	46.7	0	0	---	0.00	30.287 
06:25	48.2	48.2	48.2	94	46.6	0	0	---	0.00	30.287 
06:30	48.0	48.0	48.0	94	46.4	0	0	---	0.00	30.287 
06:35	48.0	48.0	48.0	94	46.4	0	0	---	0.00	30.287 
06:40	47.9	47.9	47.9	95	46.5	0	0	---	0.00	30.287 
06:45	47.7	47.7	47.7	95	46.3	0	0	---	0.00	30.287 
06:50	47.7	47.7	47.7	95	46.3	0	0	---	0.00	30.287 
06:55	47.6	47.6	47.6	95	46.2	0	0	---	0.00	30.287 
07:00	47.4	47.4	47.4	94	45.8	0	0	---	0.00	30.288 
07:05	47.3	47.3	47.3	95	45.9	0	0	---	0.00	30.288 
07:10	47.1	47.1	47.1	95	45.7	0	0	---	0.00	30.288 
07:15	47.1	47.1	47.1	95	45.7	0	0	---	0.00	30.296 
07:20	47.1	47.1	47.1	95	45.7	0	0	---	0.00	30.296 
07:25	47.1	47.1	47.1	95	45.7	0	0	---	0.00	30.296 
07:30	47.0	47.0	47.0	95	45.6	0	0	---	0.00	30.300 
07:35	47.0	47.0	47.0	95	45.6	0	0	---	0.00	30.300 
07:40	47.0	47.0	47.0	95	45.6	0	0	---	0.00	30.300 
07:45	47.0	47.0	47.0	95	45.6	0	0	---	0.00	30.302 
07:50	47.0	47.0	47.0	95	45.6	0	0	---	0.00	30.302 
07:55	47.1	47.1	47.1	95	45.7	0	0	---	0.00	30.302 
08:00	47.3	47.3	47.3	95	45.9	0	0	---	0.00	30.305 
08:05	47.6	47.6	47.6	95	46.2	0	0	---	0.00	30.305 
08:10	48.0	48.0	48.0	95	46.6	0	0	---	0.00	30.305 
08:15	48.3	48.3	48.3	96	47.2	0	0	---	0.00	30.301 
08:20	49.2	49.2	49.2	96	48.1	0	0	---	0.00	30.301 
08:25	49.8	49.8	49.8	96	48.7	0	0	---	0.00	30.301 
08:30	50.4	50.4	50.4	96	49.3	0	1	90	0.00	30.300 
08:35	51.1	51.1	51.1	96	50.0	0	1	90	0.00	30.300 
08:40	51.6	51.6	51.6	96	50.5	0	2	90	0.00	30.300 
08:45	51.9	51.9	51.9	96	50.8	0	1	90	0.00	30.298 
08:50	52.0	52.0	52.0	96	50.9	0	2	90	0.00	30.298 
08:55	52.2	52.2	52.2	95	50.8	0	1	90	0.00	30.298 
09:00	52.3	52.3	52.3	95	50.9	0	0	---	0.00	30.305 
09:05	52.5	52.5	52.5	95	51.1	0	1	90	0.00	30.305 
09:10	52.8	52.8	52.8	95	51.4	0	2	90	0.00	30.305 
09:15	53.1	53.1	53.1	94	51.4	0	1	90	0.00	30.302 
09:20	53.5	53.5	53.5	94	51.8	0	1	90	0.00	30.302 
09:25	53.9	53.9	53.9	93	51.9	0	0	---	0.00	30.302 
09:30	54.4	54.4	54.4	92	52.1	0	1	90	0.00	30.300 
09:35	54.8	54.8	54.8	92	52.5	0	0	---	0.00	30.300 
09:40	55.3	55.3	55.3	90	52.4	0	1	90	0.00	30.300 
09:45	55.7	55.7	55.7	89	52.5	0	1	90	0.00	30.302 
09:50	56.0	56.0	56.0	86	51.9	0	2	90	0.00	30.302 
09:55	56.6	56.6	56.6	85	52.1	0	1	90	0.00	30.302 
10:00	57.2	57.2	57.2	83	52.1	0	2	90	0.00	30.304 
10:05	57.8	57.8	57.8	82	52.3	0	1	90	0.00	30.304 
10:10	58.4	58.4	58.4	80	52.3	0	1	90	0.00	30.304 
10:15	59.2	59.2	59.2	78	52.3	0	1	90	0.00	30.303 
10:20	59.6	59.6	59.6	76	52.0	0	1	90	0.00	30.303 
10:25	60.4	60.4	60.4	75	52.4	0	1	90	0.00	30.303 
10:30	61.3	61.3	61.3	73	52.6	0	1	90	0.00	30.300 
10:35	62.1	62.1	62.1	71	52.6	0	3	90	0.00	30.300 
10:40	63.1	63.1	63.1	69	52.8	0	1	90	0.00	30.300 
10:45	63.9	63.9	63.9	67	52.7	0	1	90	0.00	30.298 
10:50	64.8	64.8	64.8	66	53.2	0	1	90	0.00	30.298 
10:55	66.0	66.0	66.0	63	53.0	0	2	90	0.00	30.298 
11:00	66.8	66.8	66.8	63	53.8	0	2	90	0.00	30.294 
11:05	67.4	67.4	67.4	64	54.8	0	1	90	0.00	30.294 
11:10	67.9	67.9	67.9	61	53.9	0	2	90	0.00	30.294 
11:15	68.4	68.4	68.4	60	54.0	0	1	90	0.00	30.293 
11:20	69.1	69.1	69.1	58	53.7	0	1	90	0.00	30.293 
11:25	69.8	69.8	69.8	58	54.3	0	2	90	0.00	30.293 
11:30	70.6	70.6	70.6	55	53.6	0	1	90	0.00	30.292 
11:35	71.3	71.3	71.3	55	54.3	0	0	---	0.00	30.292 
11:40	71.6	71.6	71.6	54	54.1	0	1	90	0.00	30.292 
11:45	71.8	71.8	71.8	54	54.2	0	1	90	0.00	30.293 
11:50	72.1	72.1	72.1	53	54.0	0	1	90	0.00	30.293 
11:55	72.3	72.3	72.3	52	53.7	0	1	90	0.00	30.293 
12:00	72.1	72.1	72.1	52	53.5	0	1	90	0.00	30.290 
12:05	72.3	72.3	72.3	54	54.7	0	1	90	0.00	30.290 
12:10	72.7	72.7	72.7	50	53.0	0	3	90	0.00	30.290 
12:15	73.3	73.3	73.3	50	53.5	0	1	90	0.00	30.285 
12:20	73.5	73.5	73.5	49	53.2	0	1	90	0.00	30.285 
12:25	73.5	73.5	73.5	54	55.8	0	1	90	0.00	30.285 
12:30	73.9	73.9	73.9	49	53.5	0	2	90	0.00	30.281 
12:35	74.4	74.4	74.4	49	54.0	0	1	90	0.00	30.281 
12:40	74.7	74.7	74.7	52	55.9	0	2	90	0.00	30.281 
12:45	74.9	74.9	74.9	50	55.0	0	1	90	0.00	30.275 
12:50	74.7	74.7	74.7	44	51.3	1	3	68	0.00	30.275 
12:55	74.6	74.6	74.6	45	51.8	0	2	68	0.00	30.275 
13:00	74.4	74.4	74.4	43	50.4	0	3	68	0.00	30.267 
13:05	74.6	74.6	74.6	45	51.8	0	2	68	0.00	30.267 
13:10	74.6	74.6	74.6	44	51.2	1	3	68	0.00	30.267 
13:15	74.9	74.9	74.9	47	53.3	0	2	68	0.00	30.264 
13:20	74.9	74.9	74.9	42	50.2	0	3	68	0.00	30.264 
13:25	75.1	75.1	77.6	42	50.4	1	3	68	0.00	30.264 
13:30	75.3	75.3	77.6	41	50.0	0	1	68	0.00	30.258 
13:35	75.6	75.6	77.7	42	50.9	0	1	68	0.00	30.258 
13:40	75.8	75.8	77.8	41	50.4	1	3	68	0.00	30.258 
13:45	76.0	76.0	77.8	40	49.9	0	2	68	0.00	30.253 
13:50	76.1	76.1	78.0	43	52.0	0	1	68	0.00	30.253 
13:55	76.5	76.5	78.0	40	50.4	0	1	68	0.00	30.253 
14:00	76.5	76.5	77.9	38	49.0	1	4	68	0.00	30.247 
14:05	76.5	76.5	77.9	37	48.3	0	2	68	0.00	30.247 
14:10	76.5	76.5	77.9	37	48.3	1	6	68	0.00	30.247 
14:15	76.5	76.5	77.9	37	48.3	1	5	90	0.00	30.243 
14:20	76.5	76.5	77.8	36	47.5	0	3	90	0.00	30.243 
14:25	76.8	76.8	78.0	38	49.2	0	3	90	0.00	30.243 
14:30	77.0	77.0	78.2	40	50.8	1	3	90	0.00	30.235 
14:35	77.0	77.0	77.9	33	45.7	1	3	90	0.00	30.235 
14:40	77.0	77.0	77.7	31	44.0	0	2	202	0.00	30.235 
14:45	77.0	77.0	77.7	31	44.0	1	3	112	0.00	30.234 
14:50	77.0	77.0	77.8	32	44.9	0	2	112	0.00	30.234 
14:55	77.0	77.0	77.6	29	42.3	1	3	112	0.00	30.234 
15:00	77.0	77.0	77.7	31	44.0	0	1	112	0.00	30.230 
15:05	76.8	76.8	77.7	31	43.9	0	3	112	0.00	30.230 
15:10	76.8	76.8	77.8	33	45.5	1	3	112	0.00	30.230 
15:15	76.8	76.8	77.7	31	43.9	1	3	112	0.00	30.227 
15:20	76.8	76.8	77.8	34	46.3	0	2	45	0.00	30.227 
15:25	77.2	77.2	77.9	32	45.0	0	3	45	0.00	30.227 
15:30	77.2	77.2	77.8	31	44.2	1	5	68	0.00	30.223 
15:35	77.0	77.0	77.7	31	44.0	1	4	68	0.00	30.223 
15:40	77.0	77.0	77.8	32	44.9	0	2	68	0.00	30.223 
15:45	77.2	77.2	77.8	30	43.3	1	3	68	0.00	30.220 
15:50	77.4	77.4	78.0	33	46.0	0	2	68	0.00	30.220 
15:55	77.6	77.6	78.1	33	46.2	0	2	68	0.00	30.220 
16:00	77.6	77.6	78.1	32	45.4	1	3	68	0.00	30.215 
16:05	77.4	77.4	77.8	29	42.6	1	4	90	0.00	30.215 
16:10	77.0	77.0	77.5	28	41.4	1	2	90	0.00	30.215 
16:15	76.7	76.7	77.4	28	41.1	1	3	112	0.00	30.213 
16:20	76.3	76.3	77.3	29	41.7	0	2	112	0.00	30.213 
16:25	76.3	76.3	77.2	27	39.8	0	2	112	0.00	30.213 
16:30	76.5	76.5	77.3	28	41.0	0	1	112	0.00	30.209 
16:35	76.5	76.5	77.4	29	41.9	0	1	112	0.00	30.209 
16:40	76.7	76.7	77.6	31	43.8	0	3	112	0.00	30.209 
16:45	76.7	76.7	77.5	30	42.9	0	4	112	0.00	30.205 
16:50	76.7	76.7	77.7	32	44.6	1	2	112	0.00	30.205 
16:55	76.7	76.7	77.6	31	43.8	0	2	112	0.00	30.205 
17:00	76.5	76.5	77.5	31	43.6	0	2	112	0.00	30.204 
17:05	76.5	76.5	77.6	32	44.4	0	1	112	0.00	30.204 
17:10	76.7	76.7	77.7	32	44.6	0	1	112	0.00	30.204 
17:15	76.5	76.5	77.5	31	43.6	0	2	112	0.00	30.204 
17:20	76.5	76.5	77.7	33	45.2	0	2	112	0.00	30.204 
17:25	76.5	76.5	77.7	33	45.2	0	1	112	0.00	30.204 
17:30	76.5	76.5	77.7	33	45.2	0	3	112	0.00	30.202 
17:35	76.3	76.3	77.5	32	44.3	0	4	112	0.00	30.202 
17:40	76.3	76.3	77.5	32	44.3	0	1	112	0.00	30.202 
17:45	76.1	76.1	77.6	34	45.7	0	1	112	0.00	30.206 
17:50	76.1	76.1	77.5	33	44.9	0	1	112	0.00	30.206 
17:55	76.0	76.0	77.5	33	44.8	0	1	112	0.00	30.206 
18:00	76.0	76.0	77.6	35	46.4	0	1	112	0.00	30.206 
18:05	75.8	75.8	77.5	35	46.2	0	1	112	0.00	30.206 
18:10	75.6	75.6	77.4	35	46.0	0	2	112	0.00	30.206 
18:15	75.6	75.6	77.4	34	45.2	1	4	112	0.00	30.206 
18:20	75.4	75.4	77.4	35	45.8	0	1	112	0.00	30.206 
18:25	75.3	75.3	77.4	35	45.7	0	0	---	0.00	30.206 
18:30	75.1	75.1	77.3	36	46.3	0	1	112	0.00	30.205 
18:35	74.9	74.9	74.9	36	46.1	0	0	---	0.00	30.205 
18:40	74.7	74.7	74.7	37	46.7	0	0	---	0.00	30.205 
18:45	74.4	74.4	74.4	37	46.4	0	0	---	0.00	30.208 
18:50	74.2	74.2	74.2	39	47.6	0	0	---	0.00	30.208 
18:55	73.9	73.9	73.9	41	48.7	0	0	---	0.00	30.208 
19:00	73.3	73.3	73.3	41	48.2	0	0	---	0.00	30.207 
19:05	72.8	72.8	72.8	43	49.0	0	0	---	0.00	30.207 
19:10	72.3	72.3	72.3	43	48.5	0	0	---	0.00	30.207 
19:15	71.8	71.8	71.8	44	48.7	0	0	---	0.00	30.207 
19:20	71.3	71.3	71.3	44	48.2	0	0	---	0.00	30.207 
19:25	70.6	70.6	70.6	45	48.2	0	0	---	0.00	30.207 
19:30	70.1	70.1	70.1	46	48.3	0	0	---	0.00	30.208 
19:35	69.4	69.4	69.4	47	48.3	0	0	---	0.00	30.208 
19:40	68.8	68.8	68.8	49	48.8	0	0	---	0.00	30.208 
19:45	68.1	68.1	68.1	53	50.3	0	0	---	0.00	30.211 
19:50	67.6	67.6	67.6	54	50.4	0	0	---	0.00	30.211 
19:55	66.9	66.9	66.9	55	50.2	0	0	---	0.00	30.211 
20:00	66.3	66.3	66.3	57	50.6	0	0	---	0.00	30.213 
20:05	65.6	65.6	65.6	59	50.9	0	0	---	0.00	30.213 
20:10	65.0	65.0	65.0	59	50.3	0	0	---	0.00	30.213 
20:15	64.5	64.5	64.5	60	50.3	0	0	---	0.00	30.212 
20:20	64.2	64.2	64.2	60	50.0	0	0	---	0.00	30.212 
20:25	63.9	63.9	63.9	61	50.2	0	0	---	0.00	30.212 
20:30	63.4	63.4	63.4	63	50.6	0	0	---	0.00	30.215 
20:35	63.1	63.1	63.1	64	50.7	0	2	112	0.00	30.215 
20:40	63.7	63.7	63.7	60	49.5	1	4	112	0.00	30.215 
20:45	64.8	64.8	64.8	58	49.7	1	3	112	0.00	30.220 
20:50	65.5	65.5	65.5	58	50.3	0	2	112	0.00	30.220 
20:55	65.6	65.6	65.6	58	50.4	0	2	112	0.00	30.220 
21:00	65.6	65.6	65.6	58	50.4	0	1	112	0.00	30.219 
21:05	65.5	65.5	65.5	58	50.3	0	1	112	0.00	30.219 
21:10	65.3	65.3	65.3	59	50.6	0	1	112	0.00	30.219 
21:15	65.0	65.0	65.0	61	51.2	0	2	112	0.00	30.218 
21:20	64.7	64.7	64.7	62	51.4	0	2	112	0.00	30.218 
21:25	64.5	64.5	64.5	63	51.6	0	2	112	0.00	30.218 
21:30	64.2	64.2	64.2	64	51.8	0	1	112	0.00	30.222 
21:35	63.9	63.9	63.9	65	51.9	0	1	112	0.00	30.222 
21:40	63.4	63.4	63.4	66	51.8	0	1	112	0.00	30.222 
21:45	63.1	63.1	63.1	67	52.0	0	0	---	0.00	30.224 
21:50	62.7	62.7	62.7	68	52.0	0	1	112	0.00	30.224 
21:55	62.4	62.4	62.4	69	52.1	0	0	---	0.00	30.224 
22:00	62.1	62.1	62.1	70	52.2	0	1	112	0.00	30.227 
22:05	62.0	62.0	62.0	71	52.5	0	1	112	0.00	30.227 
22:10	61.8	61.8	61.8	71	52.3	0	1	112	0.00	30.227 
22:15	61.5	61.5	61.5	72	52.4	0	1	112	0.00	30.220 
22:20	61.2	61.2	61.2	73	52.5	0	0	---	0.00	30.220 
22:25	60.9	60.9	60.9	73	52.2	0	0	---	0.00	30.220 
22:30	60.7	60.7	60.7	74	52.4	0	0	---	0.00	30.226 
22:35	60.4	60.4	60.4	74	52.1	0	0	---	0.00	30.226 
22:40	60.1	60.1	60.1	75	52.1	0	0	---	0.00	30.226 
22:45	59.8	59.8	59.8	76	52.2	0	0	---	0.00	30.231 
22:50	59.6	59.6	59.6	77	52.4	0	0	---	0.00	30.231 
22:55	59.3	59.3	59.3	77	52.1	0	0	---	0.00	30.231 
23:00	59.2	59.2	59.2	77	52.0	0	0	---	0.00	30.233 
23:05	58.9	58.9	58.9	77	51.7	0	0	---	0.00	30.233 
23:10	58.7	58.7	58.7	78	51.9	0	0	---	0.00	30.233 
23:15	58.4	58.4	58.4	78	51.6	0	0	---	0.00	30.229 
23:20	58.3	58.3	58.3	79	51.8	0	0	---	0.00	30.229 
23:25	58.0	58.0	58.0	80	51.9	0	0	---	0.00	30.229 
23:30	57.8	57.8	57.8	80	51.7	0	0	---	0.00	30.229 
23:35	57.6	57.6	57.6	80	51.5	0	0	---	0.00	30.229 
23:40	57.5	57.5	57.5	81	51.7	0	0	---	0.00	30.229 
23:45	57.3	57.3	57.3	81	51.5	0	0	---	0.00	30.231 
23:50	57.2	57.2	57.2	81	51.4	0	0	---	0.00	30.231 
23:55	57.0	57.0	57.0	81	51.2	0	0	---	0.00	30.231 

CoCoRaHS
IN-AL-39
A2 Web Hosting
Creative Commons License
GoDaddy
search engine by freefind advanced

loaded 2018-11-12 15:34:35 • last modified 2010-11-18 10:43:29
Privacy PolicyDisclaimer
• wx.awcolley.com is powered by PmWiki v.2002016 •
• all content (unless otherwise noted) © 2018 A W Colley